Time;durP1;ratioP1;P1;durP2;ratioP2;P2;SDS_P1;SDS_P2;PMS_P1;PMS_P2;Temp;Humidity;BMP_temperature;BMP_pressure;BME280_temperature;BME280_humidity;BME280_pressure;Samples;Min_cycle;Max_cycle;Signal;HPM_P1;HPM_P2
2021/11/27 00:01:07;;;;;;;62.22;44.17;;;282.00;2278.40;;;;;;5051582;28;20102;-59
2021/11/27 00:03:33;;;;;;;44.33;32.25;;;282.00;2278.40;;;;;;5051876;28;20451;-60
2021/11/27 00:06:00;;;;;;;93.78;64.53;;;282.00;2278.40;;;;;;5051612;28;20028;-60
2021/11/27 00:08:27;;;;;;;74.45;48.38;;;282.10;2278.40;;;;;;5051808;28;20062;-61
2021/11/27 00:10:55;;;;;;;220.07;150.57;;;282.20;2278.40;;;;;;5051721;28;20482;-60
2021/11/27 00:13:22;;;;;;;276.73;190.77;;;281.90;2278.40;;;;;;5051473;28;20104;-59
2021/11/27 00:15:49;;;;;;;266.98;182.18;;;281.90;2278.40;;;;;;5051631;28;20037;-59
2021/11/27 00:18:16;;;;;;;259.17;174.45;;;281.70;2278.40;;;;;;5051818;28;20021;-59
2021/11/27 00:21:10;;;;;;;190.48;130.63;;;281.80;2278.40;;;;;;5051413;28;20119;-59
2021/11/27 00:23:38;;;;;;;212.85;143.65;;;282.10;2278.40;;;;;;5051211;28;20033;-59
2021/11/27 00:26:06;;;;;;;186.45;132.07;;;282.10;2278.40;;;;;;5051398;28;20032;-59
2021/11/27 00:28:32;;;;;;;213.30;150.60;;;282.20;2278.40;;;;;;5051210;28;20467;-59
2021/11/27 00:31:03;;;;;;;202.45;139.00;;;282.20;2278.40;;;;;;5051071;28;20062;-58
2021/11/27 00:33:28;;;;;;;173.68;117.47;;;282.30;2278.40;;;;;;5051251;28;20021;-60
2021/11/27 00:35:54;;;;;;;69.18;44.30;;;282.30;2278.40;;;;;;5051302;28;20047;-59
2021/11/27 00:38:20;;;;;;;119.93;81.32;;;282.20;2278.40;;;;;;5050989;28;20027;-59
2021/11/27 00:40:46;;;;;;;107.03;68.78;;;282.40;2278.40;;;;;;5051239;28;20036;-59
2021/11/27 00:43:13;;;;;;;101.35;69.22;;;282.40;2278.40;;;;;;5050992;28;20045;-59
2021/11/27 00:45:41;;;;;;;102.00;66.60;;;282.40;2278.40;;;;;;5050287;28;20033;-59
2021/11/27 00:48:08;;;;;;;106.13;67.43;;;282.30;2278.40;;;;;;5051139;28;20020;-60
2021/11/27 00:50:39;;;;;;;55.33;35.65;;;282.20;2278.40;;;;;;5051100;28;20025;-59
2021/11/27 00:53:05;;;;;;;65.07;43.03;;;282.00;2278.40;;;;;;5050849;28;20036;-59
2021/11/27 00:55:33;;;;;;;62.38;42.40;;;281.90;2278.40;;;;;;5050813;28;20033;-59
2021/11/27 00:57:59;;;;;;;46.92;32.58;;;281.80;2278.40;;;;;;5050684;28;20096;-59
2021/11/27 01:00:32;;;;;;;59.10;43.10;;;281.70;2278.40;;;;;;5050587;28;20049;-59
2021/11/27 01:03:00;;;;;;;30.63;21.05;;;281.70;2278.40;;;;;;5050814;28;20369;-58
2021/11/27 01:05:27;;;;;;;31.65;21.55;;;281.70;2278.40;;;;;;5050731;28;20120;-60
2021/11/27 01:07:53;;;;;;;37.00;25.33;;;281.70;2278.40;;;;;;5050503;28;20087;-59
2021/11/27 01:10:24;;;;;;;34.70;25.48;;;281.70;2278.40;;;;;;5050621;28;20075;-59
2021/11/27 01:12:51;;;;;;;24.77;18.23;;;281.70;2278.40;;;;;;5050246;28;20067;-59
2021/11/27 01:15:20;;;;;;;33.75;23.92;;;281.90;2278.40;;;;;;5050629;28;20032;-58
2021/11/27 01:17:47;;;;;;;29.00;20.50;;;282.00;2278.40;;;;;;5050500;28;20063;-59
2021/11/27 01:20:17;;;;;;;23.27;17.77;;;282.00;2278.40;;;;;;5050495;28;20036;-60
2021/11/27 01:22:43;;;;;;;33.78;24.27;;;281.90;2278.40;;;;;;5050425;28;20029;-59
2021/11/27 01:25:10;;;;;;;27.42;18.02;;;281.80;2278.40;;;;;;5050257;28;20024;-60
2021/11/27 01:27:36;;;;;;;17.48;15.07;;;281.70;2278.40;;;;;;5050249;28;20028;-60
2021/11/27 01:30:10;;;;;;;16.85;13.73;;;281.60;2278.40;;;;;;5049953;28;20041;-59
2021/11/27 01:32:36;;;;;;;21.02;16.48;;;281.60;2278.40;;;;;;5050136;28;20471;-59
2021/11/27 01:35:03;;;;;;;20.75;16.67;;;281.60;2278.40;;;;;;5050007;28;20554;-61
2021/11/27 01:37:29;;;;;;;33.38;22.70;;;256.90;2252.80;;;;;;5050058;28;20025;-60
2021/11/27 01:39:54;;;;;;;23.02;15.85;;;281.60;2278.40;;;;;;5050225;28;20037;-60
2021/11/27 01:42:20;;;;;;;18.05;14.32;;;256.90;2252.80;;;;;;5050078;28;20025;-59
2021/11/27 01:44:46;;;;;;;17.95;12.93;;;281.60;2278.40;;;;;;5050288;28;20029;-60
2021/11/27 01:47:12;;;;;;;19.17;10.15;;;281.60;2278.40;;;;;;5049902;28;20388;-59
2021/11/27 01:49:39;;;;;;;22.60;13.30;;;281.60;2278.40;;;;;;5050265;28;20032;-59
2021/11/27 01:52:06;;;;;;;59.63;39.63;;;281.70;2278.40;;;;;;5050139;28;20036;-59
2021/11/27 01:54:33;;;;;;;60.85;42.55;;;281.60;2278.40;;;;;;5049858;28;20029;-59
2021/11/27 01:57:03;;;;;;;69.65;45.25;;;256.90;2252.80;;;;;;5049494;28;20017;-59
2021/11/27 01:59:31;;;;;;;60.38;38.78;;;281.60;2278.40;;;;;;5049485;28;20107;-59
2021/11/27 02:01:58;;;;;;;50.33;32.95;;;281.70;2278.40;;;;;;5049915;28;20083;-59
2021/11/27 02:04:26;;;;;;;45.22;30.23;;;281.60;2278.40;;;;;;5050041;28;20028;-59
2021/11/27 02:06:52;;;;;;;43.88;29.02;;;281.60;2278.40;;;;;;5049695;28;20085;-59
2021/11/27 02:09:25;;;;;;;58.95;38.13;;;281.70;2278.40;;;;;;5049965;28;20060;-59
2021/11/27 02:11:52;;;;;;;51.80;34.30;;;281.80;2278.40;;;;;;5049599;28;20379;-60
2021/11/27 02:14:18;;;;;;;41.42;28.55;;;281.90;2278.40;;;;;;5049674;28;20037;-59
2021/11/27 02:16:47;;;;;;;43.42;31.60;;;282.00;2278.40;;;;;;5049923;28;20013;-59
2021/11/27 02:19:14;;;;;;;47.88;35.00;;;282.00;2278.40;;;;;;5049918;28;20033;-59
2021/11/27 02:21:44;;;;;;;37.55;26.73;;;282.10;2278.40;;;;;;5049646;28;20483;-59
2021/11/27 02:24:11;;;;;;;35.08;22.50;;;282.10;2278.40;;;;;;5049713;28;20112;-60
2021/11/27 02:26:37;;;;;;;52.55;34.90;;;281.70;2278.40;;;;;;5049704;28;20029;-59
2021/11/27 02:29:10;;;;;;;52.03;34.58;;;281.70;2278.40;;;;;;5049356;28;20494;-60
2021/11/27 02:31:37;;;;;;;68.55;46.95;;;256.80;2252.80;;;;;;5049686;28;20040;-60
2021/11/27 02:34:05;;;;;;;59.47;41.50;;;256.50;2252.80;;;;;;5049659;28;20075;-59
2021/11/27 02:36:32;;;;;;;67.40;44.42;;;256.20;2252.80;;;;;;5049605;28;20510;-58
2021/11/27 02:38:58;;;;;;;67.38;45.50;;;256.10;2252.80;;;;;;5049626;28;20105;-59
2021/11/27 02:41:25;;;;;;;69.28;55.17;;;256.00;2252.80;;;;;;5049642;28;20061;-59
2021/11/27 02:43:51;;;;;;;63.90;41.63;;;231.30;2252.80;;;;;;5049370;28;20020;-60
2021/11/27 02:46:16;;;;;;;44.80;31.90;;;256.10;2252.80;;;;;;5049679;28;20029;-58
2021/11/27 02:48:42;;;;;;;41.58;26.02;;;256.10;2252.80;;;;;;5049357;28;20411;-59
2021/11/27 02:51:09;;;;;;;39.63;27.25;;;256.10;2252.80;;;;;;5049365;28;20431;-60
2021/11/27 02:53:34;;;;;;;33.63;24.08;;;256.40;2252.80;;;;;;5049564;28;20048;-59
2021/11/27 02:56:02;;;;;;;28.65;20.92;;;256.70;2252.80;;;;;;5049264;28;20476;-59
2021/11/27 02:58:28;;;;;;;23.85;15.23;;;256.70;2252.80;;;;;;5049319;28;20036;-60
2021/11/27 03:00:57;;;;;;;17.90;12.48;;;256.60;2252.80;;;;;;5049067;28;20053;-59
2021/11/27 03:03:24;;;;;;;29.02;16.48;;;256.30;2252.80;;;;;;5049431;28;20025;-59
2021/11/27 03:05:50;;;;;;;22.50;15.23;;;256.20;2252.80;;;;;;5049167;28;20025;-60
2021/11/27 03:08:17;;;;;;;19.52;14.15;;;231.30;2252.80;;;;;;5051490;28;20029;-59
2021/11/27 03:10:43;;;;;;;24.23;16.33;;;231.20;2252.80;;;;;;5052876;28;20036;-58
2021/11/27 03:13:09;;;;;;;28.35;18.50;;;231.10;2252.80;;;;;;5052686;28;20090;-60
2021/11/27 03:15:41;;;;;;;30.42;20.33;;;231.20;2252.80;;;;;;5052948;28;20455;-59
2021/11/27 03:18:10;;;;;;;31.52;20.63;;;231.20;2252.80;;;;;;5052886;28;20539;-59
2021/11/27 03:20:37;;;;;;;28.63;19.88;;;231.10;2252.80;;;;;;5052816;28;20033;-59
2021/11/27 03:23:04;;;;;;;31.48;21.95;;;231.10;2252.80;;;;;;5052888;28;20051;-60
2021/11/27 03:25:30;;;;;;;36.15;21.42;;;231.00;2252.80;;;;;;5052417;28;20495;-59
2021/11/27 03:27:56;;;;;;;32.65;20.88;;;230.80;2252.80;;;;;;5052509;28;20056;-59
2021/11/27 03:30:22;;;;;;;30.02;20.05;;;230.90;2252.80;;;;;;5052383;28;20044;-59
2021/11/27 03:32:48;;;;;;;33.00;21.58;;;230.80;2252.80;;;;;;5052718;28;20467;-59
2021/11/27 03:35:15;;;;;;;36.35;24.75;;;230.70;2252.80;;;;;;5052749;28;20022;-59
2021/11/27 03:37:41;;;;;;;29.45;22.75;;;230.70;2252.80;;;;;;5052525;28;20467;-59
2021/11/27 03:40:09;;;;;;;31.42;20.05;;;230.60;2252.80;;;;;;5052422;28;20033;-59
2021/11/27 03:42:34;;;;;;;26.15;19.83;;;230.60;2252.80;;;;;;5052412;28;20095;-57
2021/11/27 03:45:03;;;;;;;24.90;18.63;;;230.70;2252.80;;;;;;5052079;28;20171;-60
2021/11/27 03:47:28;;;;;;;23.80;18.08;;;230.80;2252.80;;;;;;5052123;28;20021;-59
2021/11/27 03:49:54;;;;;;;26.75;19.02;;;231.00;2252.80;;;;;;5052265;28;20028;-58
2021/11/27 03:52:21;;;;;;;26.85;18.95;;;231.00;2252.80;;;;;;5051993;28;20556;-59
2021/11/27 03:54:48;;;;;;;30.88;20.88;;;231.00;2252.80;;;;;;5052347;28;20116;-59
2021/11/27 03:57:14;;;;;;;30.38;20.48;;;231.00;2252.80;;;;;;5052250;28;20029;-58
2021/11/27 03:59:40;;;;;;;35.45;22.25;;;231.20;2252.80;;;;;;5051628;28;20059;-59
2021/11/27 04:02:06;;;;;;;41.42;27.25;;;231.30;2252.80;;;;;;5052089;28;20052;-58
2021/11/27 04:04:34;;;;;;;64.03;52.80;;;231.30;2252.80;;;;;;5051804;28;20017;-59
2021/11/27 04:07:00;;;;;;;31.80;23.17;;;231.30;2252.80;;;;;;5051846;28;20043;-60
2021/11/27 04:09:26;;;;;;;41.55;27.38;;;231.30;2252.80;;;;;;5052075;28;20464;-59
2021/11/27 04:11:52;;;;;;;36.22;25.73;;;231.30;2252.80;;;;;;5051678;28;20020;-60
2021/11/27 04:14:18;;;;;;;37.35;25.15;;;231.30;2252.80;;;;;;5051501;28;20494;-60
2021/11/27 04:16:44;;;;;;;57.80;35.45;;;231.10;2252.80;;;;;;5051863;28;20422;-59
2021/11/27 04:19:10;;;;;;;44.00;29.02;;;231.10;2252.80;;;;;;5051519;28;20021;-59
2021/11/27 04:21:36;;;;;;;48.05;33.20;;;231.10;2252.80;;;;;;5051587;28;20066;-58
2021/11/27 04:24:02;;;;;;;62.53;40.97;;;230.80;2252.80;;;;;;5051704;28;20025;-59
2021/11/27 04:26:28;;;;;;;64.47;43.28;;;230.70;2252.80;;;;;;5051517;28;20553;-58
2021/11/27 04:28:55;;;;;;;48.20;34.35;;;230.70;2252.80;;;;;;5051521;28;20017;-58
2021/11/27 04:31:21;;;;;;;45.40;31.80;;;230.70;2252.80;;;;;;5051116;28;20030;-59
2021/11/27 04:33:49;;;;;;;51.92;38.05;;;230.80;2252.80;;;;;;5051576;28;20021;-59
2021/11/27 04:36:16;;;;;;;97.40;57.50;;;230.80;2252.80;;;;;;5051589;28;20108;-59
2021/11/27 04:38:42;;;;;;;87.82;60.60;;;230.70;2252.80;;;;;;5051119;28;20025;-60
2021/11/27 04:41:08;;;;;;;88.82;59.90;;;230.70;2252.80;;;;;;5049972;28;20515;-59
2021/11/27 04:43:34;;;;;;;58.28;40.00;;;230.60;2252.80;;;;;;5051240;28;20048;-59
2021/11/27 04:46:01;;;;;;;71.75;48.33;;;230.40;2252.80;;;;;;5050946;28;20036;-59
2021/11/27 04:48:27;;;;;;;44.38;33.45;;;230.50;2252.80;;;;;;5051109;28;20028;-59
2021/11/27 04:50:52;;;;;;;50.97;36.25;;;205.70;2252.80;;;;;;5051038;28;20029;-59
2021/11/27 04:53:19;;;;;;;63.83;48.67;;;205.70;2252.80;;;;;;5050991;28;20053;-60
2021/11/27 04:55:44;;;;;;;93.47;60.83;;;205.70;2252.80;;;;;;5051099;28;20028;-60
2021/11/27 04:58:10;;;;;;;68.57;46.38;;;205.70;2252.80;;;;;;5050609;28;20032;-57
2021/11/27 05:00:42;;;;;;;56.60;36.60;;;205.70;2252.80;;;;;;5050551;28;20057;-59
2021/11/27 05:03:08;;;;;;;66.63;42.17;;;205.60;2252.80;;;;;;5050531;28;20064;-60
2021/11/27 05:05:34;;;;;;;49.75;35.00;;;205.60;2252.80;;;;;;5050815;28;20025;-60
2021/11/27 05:08:00;;;;;;;59.60;38.15;;;205.40;2252.80;;;;;;5050410;28;20056;-60
2021/11/27 05:10:26;;;;;;;57.85;42.83;;;205.20;2252.80;;;;;;5050644;28;20036;-59
2021/11/27 05:12:53;;;;;;;46.10;32.15;;;205.20;2252.80;;;;;;5050380;28;20036;-59
2021/11/27 05:15:18;;;;;;;59.63;50.17;;;204.90;2252.80;;;;;;5050396;28;20024;-60
2021/11/27 05:17:44;;;;;;;50.13;34.67;;;205.00;2252.80;;;;;;5050760;28;20521;-60
2021/11/27 05:20:10;;;;;;;54.47;35.50;;;180.10;2252.80;;;;;;5050325;28;20033;-60
2021/11/27 05:22:36;;;;;;;47.17;33.35;;;204.90;2252.80;;;;;;5050586;28;20087;-59
2021/11/27 05:25:04;;;;;;;47.00;32.83;;;205.00;2252.80;;;;;;5050372;28;20152;-58
2021/11/27 05:27:30;;;;;;;52.38;34.20;;;205.10;2252.80;;;;;;5050225;28;20174;-60
2021/11/27 05:29:55;;;;;;;47.85;32.78;;;205.20;2252.80;;;;;;5049938;28;20056;-59
2021/11/27 05:32:28;;;;;;;60.53;39.42;;;205.20;2252.80;;;;;;5050189;28;20064;-60
2021/11/27 05:34:55;;;;;;;43.15;30.15;;;205.10;2252.80;;;;;;5050349;28;20082;-60
2021/11/27 05:37:21;;;;;;;47.45;34.10;;;205.20;2252.80;;;;;;5050103;28;20036;-59
2021/11/27 05:39:48;;;;;;;50.03;33.75;;;205.20;2252.80;;;;;;5050388;28;20130;-60
2021/11/27 05:42:15;;;;;;;57.80;41.50;;;205.20;2252.80;;;;;;5050329;28;20063;-60
2021/11/27 05:44:42;;;;;;;49.58;34.55;;;205.10;2252.80;;;;;;5048616;28;20033;-60
2021/11/27 05:47:08;;;;;;;48.40;32.65;;;205.20;2252.80;;;;;;5050167;28;20037;-59
2021/11/27 05:49:35;;;;;;;49.80;33.15;;;205.20;2252.80;;;;;;5050293;28;20029;-60
2021/11/27 05:52:01;;;;;;;46.38;33.42;;;205.30;2252.80;;;;;;5049890;28;20060;-60
2021/11/27 05:54:26;;;;;;;49.20;32.35;;;205.30;2252.80;;;;;;5050101;28;20053;-60
2021/11/27 05:56:52;;;;;;;51.78;34.10;;;205.30;2252.80;;;;;;5049785;28;20025;-60
2021/11/27 05:59:18;;;;;;;60.15;36.97;;;205.30;2252.80;;;;;;5049734;28;20539;-60
2021/11/27 06:01:44;;;;;;;45.70;29.25;;;205.20;2252.80;;;;;;5050228;28;20041;-59
2021/11/27 06:04:10;;;;;;;38.13;25.52;;;205.30;2252.80;;;;;;5049956;28;20495;-60
2021/11/27 06:06:35;;;;;;;51.22;31.27;;;205.30;2252.80;;;;;;5049974;28;20025;-60
2021/11/27 06:09:01;;;;;;;86.45;62.83;;;205.40;2252.80;;;;;;5049760;28;20025;-60
2021/11/27 06:11:27;;;;;;;78.65;58.20;;;205.30;2252.80;;;;;;5049859;28;20055;-60
2021/11/27 06:13:53;;;;;;;76.80;55.55;;;205.30;2252.80;;;;;;5049792;28;20021;-60
2021/11/27 06:16:19;;;;;;;60.45;42.08;;;205.20;2252.80;;;;;;5049611;28;20476;-60
2021/11/27 06:18:45;;;;;;;51.65;33.75;;;205.30;2252.80;;;;;;5049930;28;20033;-59
2021/11/27 06:21:11;;;;;;;51.05;37.33;;;205.20;2252.80;;;;;;5049631;28;20119;-59
2021/11/27 06:23:37;;;;;;;224.02;132.00;;;205.20;2252.80;;;;;;5048455;28;20487;-60
2021/11/27 06:26:03;;;;;;;157.82;93.25;;;205.20;2252.80;;;;;;5049852;28;20036;-60
2021/11/27 06:28:31;;;;;;;175.88;127.85;;;205.20;2252.80;;;;;;5049417;28;20017;-60
2021/11/27 06:30:56;;;;;;;163.95;109.20;;;204.90;2252.80;;;;;;5049544;28;20037;-60
2021/11/27 06:33:22;;;;;;;112.38;72.05;;;205.10;2252.80;;;;;;5049438;28;20032;-60
2021/11/27 06:35:48;;;;;;;117.10;74.70;;;205.20;2252.80;;;;;;5049594;28;20025;-61
2021/11/27 06:38:14;;;;;;;140.90;85.68;;;205.20;2252.80;;;;;;5049671;28;20021;-60
2021/11/27 06:40:40;;;;;;;321.38;191.32;;;205.20;2252.80;;;;;;5049332;28;20025;-59
2021/11/27 06:43:06;;;;;;;185.77;123.63;;;205.20;2252.80;;;;;;5051365;28;20074;-59
2021/11/27 06:45:33;;;;;;;195.77;123.15;;;205.10;2252.80;;;;;;5053275;28;20047;-60
2021/11/27 06:48:00;;;;;;;117.78;76.18;;;205.10;2252.80;;;;;;5053462;28;20032;-60
2021/11/27 06:50:26;;;;;;;122.03;77.72;;;205.10;2252.80;;;;;;5053461;28;20025;-59
2021/11/27 06:52:52;;;;;;;294.80;169.85;;;205.20;2252.80;;;;;;5053214;28;20021;-60
2021/11/27 06:55:18;;;;;;;309.77;183.02;;;205.40;2252.80;;;;;;5053221;28;20510;-60
2021/11/27 06:57:43;;;;;;;148.32;93.38;;;205.60;2252.80;;;;;;5053381;28;20139;-59
2021/11/27 07:00:11;;;;;;;170.63;120.82;;;230.40;2252.80;;;;;;5052598;28;20488;-60
2021/11/27 07:02:37;;;;;;;247.35;186.18;;;230.60;2252.80;;;;;;5053219;28;20151;-61
2021/11/27 07:05:03;;;;;;;203.13;154.65;;;230.70;2252.80;;;;;;5053336;28;20150;-61
2021/11/27 07:07:29;;;;;;;194.13;138.80;;;230.90;2252.80;;;;;;5053016;28;20095;-61
2021/11/27 07:09:55;;;;;;;270.50;190.10;;;230.90;2252.80;;;;;;5053103;28;20052;-61
2021/11/27 07:12:21;;;;;;;223.48;157.57;;;230.90;2252.80;;;;;;5052790;28;20454;-60
2021/11/27 07:14:47;;;;;;;278.45;200.55;;;231.00;2252.80;;;;;;5052928;28;20033;-61
2021/11/27 07:17:13;;;;;;;394.75;278.48;;;230.60;2252.80;;;;;;5052868;28;20029;-61
2021/11/27 07:19:39;;;;;;;245.20;184.23;;;230.40;2252.80;;;;;;5052868;28;20060;-60
2021/11/27 07:22:05;;;;;;;203.07;146.85;;;230.50;2252.80;;;;;;5051121;28;20040;-61
2021/11/27 07:24:31;;;;;;;184.55;139.88;;;230.50;2252.80;;;;;;5052634;28;20031;-62
2021/11/27 07:26:59;;;;;;;213.27;147.73;;;205.70;2252.80;;;;;;5052835;28;20029;-60
2021/11/27 07:29:25;;;;;;;195.85;137.27;;;230.50;2252.80;;;;;;5052571;28;20029;-61
2021/11/27 07:31:51;;;;;;;195.00;139.23;;;230.80;2252.80;;;;;;5052456;28;20028;-61
2021/11/27 07:34:17;;;;;;;217.13;158.15;;;230.80;2252.80;;;;;;5052942;28;20496;-61
2021/11/27 07:36:43;;;;;;;188.90;138.00;;;230.90;2252.80;;;;;;5051101;28;20483;-61
2021/11/27 07:39:09;;;;;;;269.15;194.70;;;231.10;2252.80;;;;;;5052337;28;20032;-61
2021/11/27 07:41:36;;;;;;;179.95;121.75;;;256.00;2252.80;;;;;;5052373;28;20041;-66
2021/11/27 07:44:02;;;;;;;284.42;212.57;;;231.20;2252.80;;;;;;5052116;28;20036;-62
2021/11/27 07:46:29;;;;;;;262.20;195.15;;;256.00;2252.80;;;;;;5052150;28;20029;-62
2021/11/27 07:48:55;;;;;;;296.65;227.77;;;256.10;2252.80;;;;;;5052352;28;20021;-61
2021/11/27 07:51:21;;;;;;;267.45;198.52;;;256.10;2252.80;;;;;;5052288;28;20029;-60
2021/11/27 07:53:47;;;;;;;301.83;229.60;;;231.30;2252.80;;;;;;5052058;28;20025;-60
2021/11/27 07:56:13;;;;;;;290.15;212.55;;;231.20;2252.80;;;;;;5052522;28;20025;-61
2021/11/27 07:58:39;;;;;;;251.75;186.63;;;256.00;2252.80;;;;;;5052137;28;20036;-60
2021/11/27 08:01:05;;;;;;;306.63;166.13;;;256.10;2252.80;;;;;;5051852;28;20438;-60
2021/11/27 08:03:31;;;;;;;371.70;173.27;;;256.20;2252.80;;;;;;5051157;28;20028;-61
2021/11/27 08:05:57;;;;;;;422.98;160.40;;;256.20;2252.80;;;;;;5052086;28;20104;-60
2021/11/27 08:08:23;;;;;;;356.92;110.45;;;256.00;2252.80;;;;;;5051955;28;20025;-60
2021/11/27 08:10:48;;;;;;;396.30;150.05;;;230.80;2252.80;;;;;;5043253;28;20037;-61
2021/11/27 08:13:15;;;;;;;423.23;171.82;;;231.20;2252.80;;;;;;5039885;28;20025;-60
2021/11/27 08:15:40;;;;;;;337.30;168.65;;;230.90;2252.80;;;;;;5037841;28;20029;-61
2021/11/27 08:18:06;;;;;;;318.45;154.63;;;231.20;2252.80;;;;;;5039200;28;20375;-61
2021/11/27 08:20:34;;;;;;;489.67;148.43;;;231.00;2252.80;;;;;;5045475;28;20041;-61
2021/11/27 08:23:00;;;;;;;330.88;136.30;;;230.50;2252.80;;;;;;5049867;28;20029;-61
2021/11/27 08:25:26;;;;;;;288.30;105.13;;;230.70;2252.80;;;;;;5049943;28;20086;-61
2021/11/27 08:27:52;;;;;;;413.98;103.40;;;230.60;2252.80;;;;;;5049813;28;20637;-60
2021/11/27 08:30:18;;;;;;;379.75;105.88;;;205.60;2252.80;;;;;;5049674;28;20024;-61
2021/11/27 08:32:48;;;;;;;488.20;182.80;;;205.70;2252.80;;;;;;5046565;28;20610;-61
2021/11/27 08:35:14;;;;;;;247.68;116.32;;;230.50;2252.80;;;;;;5050101;28;20075;-60
2021/11/27 08:37:39;;;;;;;390.58;180.85;;;230.90;2252.80;;;;;;5049269;28;20029;-61
2021/11/27 08:40:06;;;;;;;288.50;138.30;;;230.90;2252.80;;;;;;5049802;28;20095;-61
2021/11/27 08:42:37;;;;;;;306.98;94.88;;;231.00;2252.80;;;;;;5049669;28;20033;-60
2021/11/27 08:45:05;;;;;;;183.80;81.47;;;230.70;2252.80;;;;;;5049901;28;20075;-62
2021/11/27 08:47:30;;;;;;;291.33;91.47;;;230.90;2252.80;;;;;;5049991;28;20032;-61
2021/11/27 08:49:59;;;;;;;330.67;137.90;;;231.00;2252.80;;;;;;5048830;28;20471;-61
2021/11/27 08:52:25;;;;;;;300.17;90.20;;;231.00;2252.80;;;;;;5049756;28;20036;-61
2021/11/27 08:54:51;;;;;;;154.50;74.60;;;231.00;2252.80;;;;;;5049429;28;20052;-60
2021/11/27 08:57:17;;;;;;;408.83;115.63;;;231.20;2252.80;;;;;;5049499;28;20579;-60
2021/11/27 08:59:43;;;;;;;307.90;117.45;;;231.10;2252.80;;;;;;5049307;28;20057;-61
2021/11/27 09:02:10;;;;;;;252.02;101.43;;;231.00;2252.80;;;;;;5048987;28;20159;-61
2021/11/27 09:04:36;;;;;;;261.38;85.65;;;231.10;2252.80;;;;;;5048861;28;20067;-61
2021/11/27 09:07:03;;;;;;;222.18;89.93;;;231.20;2252.80;;;;;;5048819;28;20487;-61
2021/11/27 09:09:29;;;;;;;413.00;113.80;;;230.90;2252.80;;;;;;5049180;28;20025;-61
2021/11/27 09:11:55;;;;;;;259.17;91.70;;;230.60;2252.80;;;;;;5049565;28;20383;-60
2021/11/27 09:14:21;;;;;;;207.73;96.53;;;230.70;2252.80;;;;;;5049108;28;20021;-60
2021/11/27 09:16:50;;;;;;;182.20;95.22;;;230.70;2252.80;;;;;;5047048;28;20474;-61
2021/11/27 09:19:16;;;;;;;364.98;123.35;;;231.00;2252.80;;;;;;5049279;28;20032;-60
2021/11/27 09:21:41;;;;;;;210.32;94.53;;;230.90;2252.80;;;;;;5048734;28;20036;-61
2021/11/27 09:24:09;;;;;;;216.02;96.78;;;230.70;2252.80;;;;;;5048946;28;20118;-61
2021/11/27 09:26:37;;;;;;;146.65;80.13;;;230.60;2252.80;;;;;;5047771;28;20079;-60
2021/11/27 09:29:06;;;;;;;338.65;137.82;;;230.80;2252.80;;;;;;5047244;28;20024;-61
2021/11/27 09:31:32;;;;;;;411.70;163.20;;;230.90;2252.80;;;;;;5048656;28;20451;-61
2021/11/27 09:33:57;;;;;;;187.68;82.75;;;230.90;2252.80;;;;;;5048990;28;20559;-61
2021/11/27 09:36:24;;;;;;;176.68;87.53;;;230.90;2252.80;;;;;;5048878;28;20033;-61
2021/11/27 09:38:50;;;;;;;597.05;236.18;;;230.90;2252.80;;;;;;5048531;28;20028;-60
2021/11/27 09:41:27;;;;;;;408.00;125.07;;;231.00;2252.80;;;;;;5048651;28;20037;-61
2021/11/27 09:43:58;;;;;;;396.58;123.82;;;230.70;2252.80;;;;;;5050404;28;20032;-61
2021/11/27 09:46:26;;;;;;;366.38;197.88;;;230.60;2252.80;;;;;;5050260;28;20028;-61
2021/11/27 09:48:57;;;;;;;303.33;166.68;;;230.70;2252.80;;;;;;5049840;28;20025;-61
2021/11/27 09:51:25;;;;;;;357.80;167.77;;;230.90;2252.80;;;;;;5049995;28;20475;-61
2021/11/27 09:53:52;;;;;;;259.63;98.95;;;230.90;2252.80;;;;;;5048739;28;20028;-61
2021/11/27 09:56:20;;;;;;;499.65;162.25;;;231.10;2252.80;;;;;;5049990;28;20378;-61
2021/11/27 09:58:47;;;;;;;241.50;106.22;;;230.90;2252.80;;;;;;5050058;28;20100;-61
2021/11/27 10:01:19;;;;;;;254.90;122.82;;;231.00;2252.80;;;;;;5049433;28;20052;-61
2021/11/27 10:03:58;;;;;;;226.57;110.15;;;256.10;2252.80;;;;;;5050270;28;20017;-61
2021/11/27 10:06:24;;;;;;;208.52;81.47;;;256.20;2252.80;;;;;;5049940;28;20027;-61
2021/11/27 10:08:50;;;;;;;251.55;102.90;;;256.60;2252.80;;;;;;5049801;28;20108;-61
2021/11/27 10:11:21;;;;;;;199.32;85.53;;;256.50;2252.80;;;;;;5049932;28;20112;-61
2021/11/27 10:13:47;;;;;;;223.68;71.90;;;256.70;2252.80;;;;;;5050065;28;20028;-61
2021/11/27 10:16:13;;;;;;;400.08;89.40;;;256.50;2252.80;;;;;;5050102;28;20029;-61
2021/11/27 10:18:38;;;;;;;169.65;87.35;;;256.60;2252.80;;;;;;5053858;28;20024;-61
2021/11/27 10:21:17;;;;;;;148.75;83.20;;;256.70;2252.80;;;;;;5053784;28;20078;-61
2021/11/27 10:23:44;;;;;;;209.23;87.53;;;281.70;2278.40;;;;;;5053814;28;20471;-61
2021/11/27 10:26:33;;;;;;;261.60;126.00;;;281.90;2278.40;;;;;;5053538;28;20036;-62
2021/11/27 10:29:13;;;;;;;186.73;95.85;;;281.80;2278.40;;;;;;5053553;28;20024;-62
2021/11/27 10:31:41;;;;;;;185.77;91.47;;;281.90;2278.40;;;;;;5052223;28;20029;-61
2021/11/27 10:34:07;;;;;;;331.45;200.43;;;282.00;2278.40;;;;;;5053561;28;20104;-61
2021/11/27 10:36:32;;;;;;;384.67;241.55;;;281.70;2278.40;;;;;;5053240;28;20693;-61
2021/11/27 10:39:07;;;;;;;219.88;120.00;;;282.10;2278.40;;;;;;5053339;28;20020;-61
2021/11/27 10:41:37;;;;;;;210.40;113.22;;;282.20;2278.40;;;;;;5053430;28;20041;-61
2021/11/27 10:44:10;;;;;;;181.98;95.53;;;282.10;2278.40;;;;;;5053537;28;20093;-61
2021/11/27 10:46:38;;;;;;;226.38;139.10;;;282.00;2278.40;;;;;;5053519;28;20029;-61
2021/11/27 10:49:05;;;;;;;235.63;143.30;;;307.20;2304.00;;;;;;5053407;28;20033;-61
2021/11/27 10:51:32;;;;;;;262.05;157.13;;;307.30;2304.00;;;;;;5053293;28;20108;-61
2021/11/27 10:54:01;;;;;;;247.60;150.93;;;307.40;2304.00;;;;;;5052992;28;20049;-61
2021/11/27 10:56:39;;;;;;;210.55;123.57;;;307.40;2304.00;;;;;;5053235;28;20050;-61
2021/11/27 10:59:07;;;;;;;181.07;108.95;;;307.50;2304.00;;;;;;5053117;28;20029;-61
2021/11/27 11:02:04;;;;;;;294.92;178.15;;;307.60;2304.00;;;;;;5033098;28;20045;-61
2021/11/27 11:04:30;;;;;;;251.57;132.75;;;307.20;2304.00;;;;;;5033074;28;20155;-61
2021/11/27 11:07:19;;;;;;;245.52;156.50;;;282.50;2278.40;;;;;;5033212;28;20025;-61
2021/11/27 11:10:08;;;;;;;215.68;134.32;;;307.50;2304.00;;;;;;5033250;28;20021;-61
2021/11/27 11:12:40;;;;;;;251.88;155.32;;;307.50;2304.00;;;;;;5033201;28;20036;-60
2021/11/27 11:15:08;;;;;;;241.45;152.57;;;307.30;2304.00;;;;;;5033117;28;20079;-61
2021/11/27 11:17:34;;;;;;;227.50;150.65;;;282.40;2278.40;;;;;;5033133;28;20025;-60
2021/11/27 11:20:15;;;;;;;225.85;151.13;;;282.50;2278.40;;;;;;5032726;28;20387;-61
2021/11/27 11:22:54;;;;;;;243.60;153.98;;;281.90;2278.40;;;;;;5032664;28;20025;-60
2021/11/27 11:25:20;;;;;;;235.43;143.15;;;256.90;2252.80;;;;;;5032680;28;20401;-61
2021/11/27 11:27:46;;;;;;;209.73;132.88;;;256.90;2252.80;;;;;;5032362;28;20071;-61
2021/11/27 11:30:15;;;;;;;201.27;121.88;;;281.90;2278.40;;;;;;5032198;28;20038;-61
2021/11/27 11:32:41;;;;;;;192.82;115.93;;;282.00;2278.40;;;;;;5032494;28;20032;-62
2021/11/27 11:35:08;;;;;;;185.32;114.60;;;282.20;2278.40;;;;;;5032793;28;20025;-61
2021/11/27 11:37:34;;;;;;;188.45;119.15;;;307.20;2304.00;;;;;;5032544;28;20021;-61
2021/11/27 11:40:00;;;;;;;193.20;123.25;;;307.30;2304.00;;;;;;5032493;28;20093;-62
2021/11/27 11:42:26;;;;;;;198.23;124.32;;;307.40;2304.00;;;;;;5027203;28;20038;-61
2021/11/27 11:44:56;;;;;;;191.30;119.25;;;307.30;2304.00;;;;;;5012054;28;20029;-62
2021/11/27 11:47:23;;;;;;;173.88;110.38;;;307.40;2304.00;;;;;;5010973;28;20034;-61
2021/11/27 11:49:59;;;;;;;178.50;113.40;;;307.60;2304.00;;;;;;5010942;28;20029;-61
2021/11/27 11:52:58;;;;;;;173.25;114.18;;;307.50;2304.00;;;;;;5011056;28;20029;-62